Time;durP1;ratioP1;P1;durP2;ratioP2;P2;SDS_P1;SDS_P2;PMS_P1;PMS_P2;Temp;Humidity;BMP_temperature;BMP_pressure;BME280_temperature;BME280_humidity;BME280_pressure;Samples;Min_cycle;Max_cycle;Signal;HPM_P1;HPM_P2
2024/01/21 00:00:56;;;;;;;9.27;3.50;;;;;;;17.83;35.60;102275.44;4949134;28;20074;-71
2024/01/21 00:03:21;;;;;;;10.60;3.80;;;;;;;17.78;35.88;102254.59;4946804;29;20039;-72
2024/01/21 00:05:46;;;;;;;8.65;3.28;;;;;;;17.73;35.63;102254.00;4949342;29;20041;-71
2024/01/21 00:08:12;;;;;;;7.85;3.58;;;;;;;17.71;35.48;102250.63;4947570;29;20031;-72
2024/01/21 00:10:37;;;;;;;7.05;3.33;;;;;;;17.78;35.33;102259.88;4948785;29;20031;-71
2024/01/21 00:13:03;;;;;;;7.80;3.55;;;;;;;17.72;35.53;102255.81;4949068;29;20028;-71
2024/01/21 00:15:28;;;;;;;7.13;3.42;;;;;;;17.72;35.39;102245.25;4948578;29;20037;-73
2024/01/21 00:17:53;;;;;;;5.97;3.55;;;;;;;17.65;35.70;102238.63;4948692;29;20062;-71
2024/01/21 00:20:18;;;;;;;8.75;3.08;;;;;;;17.61;35.43;102225.72;4948807;29;20054;-72
2024/01/21 00:22:44;;;;;;;7.28;3.25;;;;;;;17.62;35.50;102224.78;4947869;29;20440;-73
2024/01/21 00:25:09;;;;;;;7.50;2.90;;;;;;;17.67;35.59;102236.75;4948911;29;20027;-71
2024/01/21 00:27:35;;;;;;;6.55;3.20;;;;;;;17.71;35.58;102240.91;4948435;29;20421;-71
2024/01/21 00:30:02;;;;;;;8.57;3.58;;;;;;;17.58;35.72;102213.56;4948193;28;20506;-72
2024/01/21 00:32:27;;;;;;;7.05;3.20;;;;;;;17.68;35.60;102237.63;4948509;28;20039;-71
2024/01/21 00:34:53;;;;;;;6.28;3.15;;;;;;;17.63;35.75;102223.84;4948262;29;20500;-72
2024/01/21 00:37:19;;;;;;;8.40;2.95;;;;;;;17.67;35.67;102226.19;4948947;29;20111;-72
2024/01/21 00:39:44;;;;;;;8.98;3.45;;;;;;;17.59;35.33;102207.34;4948512;28;20125;-71
2024/01/21 00:42:09;;;;;;;9.40;3.38;;;;;;;17.62;35.28;102216.88;4948492;29;20035;-71
2024/01/21 00:44:36;;;;;;;6.50;2.90;;;;;;;17.59;35.38;102215.25;4948231;29;20024;-73
2024/01/21 00:47:01;;;;;;;7.40;3.05;;;;;;;17.48;35.50;102199.19;4948235;28;20511;-74
2024/01/21 00:49:27;;;;;;;8.98;3.35;;;;;;;17.45;35.22;102194.97;4948790;29;20058;-73
2024/01/21 00:51:52;;;;;;;8.95;3.65;;;;;;;17.51;35.24;102212.22;4948349;29;20388;-70
2024/01/21 00:54:18;;;;;;;8.05;3.30;;;;;;;17.56;35.47;102226.84;4948404;29;20066;-72
2024/01/21 00:56:43;;;;;;;6.68;3.15;;;;;;;17.38;35.54;102197.09;4948347;29;20041;-72
2024/01/21 00:59:08;;;;;;;7.07;3.20;;;;;;;17.53;35.44;102224.38;4948825;29;20118;-71
2024/01/21 01:01:37;;;;;;;7.82;3.40;;;;;;;17.40;35.37;102202.28;4948227;29;20268;-75
2024/01/21 01:04:06;;;;;;;10.15;3.60;;;;;;;17.48;35.13;102205.34;4945691;29;20031;-75
2024/01/21 01:06:34;;;;;;;7.72;3.97;;;;;;;17.43;35.37;102185.44;4948287;28;20155;-72
2024/01/21 01:08:59;;;;;;;7.00;3.00;;;;;;;17.38;35.59;102175.16;4946887;29;20035;-74
2024/01/21 01:11:25;;;;;;;8.18;3.60;;;;;;;17.42;35.34;102176.69;4946911;29;20046;-73
2024/01/21 01:13:50;;;;;;;9.05;3.65;;;;;;;17.46;35.35;102187.91;4948198;29;20123;-71
2024/01/21 01:16:16;;;;;;;6.10;3.22;;;;;;;17.46;35.32;102185.28;4948380;29;20035;-74
2024/01/21 01:18:41;;;;;;;7.75;3.40;;;;;;;17.30;35.01;102157.16;4946993;29;20396;-72
2024/01/21 01:21:10;;;;;;;8.07;3.50;;;;;;;17.28;35.04;102148.50;4948130;29;20043;-73
2024/01/21 01:23:35;;;;;;;8.77;3.47;;;;;;;17.37;34.94;102155.88;4948009;28;20494;-72
2024/01/21 01:26:00;;;;;;;7.78;3.45;;;;;;;17.29;35.09;102133.53;4948173;29;20054;-70
2024/01/21 01:28:26;;;;;;;9.30;3.30;;;;;;;17.29;35.15;102134.38;4947928;29;20130;-75
2024/01/21 01:30:51;;;;;;;8.15;3.55;;;;;;;17.30;35.12;102127.31;4948238;29;20102;-73
2024/01/21 01:33:16;;;;;;;7.90;3.47;;;;;;;17.34;35.41;102132.34;4948279;29;20376;-74
2024/01/21 01:35:41;;;;;;;8.93;4.20;;;;;;;17.25;35.00;102116.22;4948231;29;20047;-72
2024/01/21 01:38:11;;;;;;;7.93;3.38;;;;;;;17.29;35.19;102126.50;4948304;29;20491;-74
2024/01/21 01:40:36;;;;;;;9.65;4.03;;;;;;;17.30;34.91;102122.91;4948134;29;20035;-74
2024/01/21 01:43:02;;;;;;;9.35;3.70;;;;;;;17.29;34.89;102120.34;4948928;28;20542;-74
2024/01/21 01:45:28;;;;;;;5.93;3.38;;;;;;;17.21;34.84;102104.97;4951952;29;20042;-72
2024/01/21 01:47:53;;;;;;;9.00;3.90;;;;;;;17.19;34.82;102097.16;4951352;28;20497;-74
2024/01/21 01:50:19;;;;;;;8.23;3.28;;;;;;;17.25;34.89;102098.59;4951440;29;20067;-72
2024/01/21 01:52:45;;;;;;;8.35;3.15;;;;;;;17.25;34.86;102095.13;4950712;28;20035;-72
2024/01/21 01:55:11;;;;;;;10.60;3.83;;;;;;;17.22;34.92;102083.81;4948524;29;20065;-71
2024/01/21 01:57:37;;;;;;;7.35;3.65;;;;;;;17.16;34.55;102078.91;4951411;28;20082;-72
2024/01/21 02:00:06;;;;;;;7.90;3.70;;;;;;;17.13;34.94;102079.09;4951235;28;20071;-72
2024/01/21 02:02:32;;;;;;;6.15;3.35;;;;;;;17.21;34.87;102095.31;4949089;28;20306;-71
2024/01/21 02:05:03;;;;;;;8.10;3.55;;;;;;;17.19;35.00;102086.63;4950277;28;20182;-72
2024/01/21 02:07:28;;;;;;;9.05;4.15;;;;;;;17.11;34.61;102073.03;4951753;28;20780;-72
2024/01/21 02:09:53;;;;;;;8.25;3.35;;;;;;;17.17;34.97;102070.06;4950181;29;20140;-72
2024/01/21 02:12:19;;;;;;;8.15;3.50;;;;;;;17.14;34.61;102064.97;4951124;28;20038;-72
2024/01/21 02:14:44;;;;;;;6.95;3.08;;;;;;;17.15;34.60;102065.84;4951481;29;20039;-75
2024/01/21 02:17:09;;;;;;;8.98;3.13;;;;;;;17.14;34.67;102062.34;4951378;29;20035;-70
2024/01/21 02:19:35;;;;;;;10.43;3.70;;;;;;;17.11;34.48;102053.78;4951183;29;20039;-73
2024/01/21 02:22:00;;;;;;;8.90;3.30;;;;;;;17.12;34.42;102055.47;4950937;29;20523;-74
2024/01/21 02:24:30;;;;;;;8.48;3.45;;;;;;;17.12;34.41;102052.84;4951058;29;20031;-73
2024/01/21 02:26:56;;;;;;;9.02;3.58;;;;;;;17.13;34.64;102054.53;4951109;29;20038;-72
2024/01/21 02:29:21;;;;;;;6.45;3.40;;;;;;;17.13;34.82;102046.63;4950220;28;20043;-73
2024/01/21 02:31:46;;;;;;;7.38;3.20;;;;;;;16.88;34.96;102002.41;4950734;29;20361;-74
2024/01/21 02:34:11;;;;;;;8.63;3.00;;;;;;;16.99;34.86;102016.66;4950548;28;20126;-73
2024/01/21 02:36:37;;;;;;;8.02;3.20;;;;;;;16.97;34.51;102001.88;4950838;29;20472;-74
2024/01/21 02:39:02;;;;;;;6.75;3.10;;;;;;;17.07;34.84;102018.00;4949980;29;20123;-72
2024/01/21 02:41:27;;;;;;;7.65;3.08;;;;;;;16.94;34.65;101992.41;4950594;29;20472;-73
2024/01/21 02:43:53;;;;;;;8.43;2.90;;;;;;;17.07;34.73;102010.97;4950418;29;20057;-73
2024/01/21 02:46:18;;;;;;;10.40;3.42;;;;;;;16.92;34.74;101977.63;4950828;29;20027;-74
2024/01/21 02:48:43;;;;;;;6.93;2.90;;;;;;;17.02;34.31;102005.97;4949997;29;20189;-74
2024/01/21 02:51:13;;;;;;;7.18;3.00;;;;;;;16.93;34.64;101995.97;4950577;29;20027;-74
2024/01/21 02:53:38;;;;;;;5.18;2.55;;;;;;;16.99;34.61;102005.28;4949978;28;20110;-73
2024/01/21 02:56:04;;;;;;;8.68;2.63;;;;;;;17.01;34.34;102011.31;4950388;29;20043;-75
2024/01/21 02:58:29;;;;;;;7.88;2.90;;;;;;;16.99;34.53;102014.03;4949041;29;20066;-73
2024/01/21 03:00:54;;;;;;;5.53;2.65;;;;;;;16.95;34.45;102007.25;4950316;29;20035;-73
2024/01/21 03:03:20;;;;;;;7.73;3.30;;;;;;;16.96;34.42;102008.94;4947807;29;20523;-72
2024/01/21 03:05:45;;;;;;;9.90;3.17;;;;;;;16.95;34.27;102007.25;4949873;29;20272;-74
2024/01/21 03:08:11;;;;;;;7.72;3.05;;;;;;;16.99;34.57;102010.53;4949888;29;20305;-74
2024/01/21 03:10:36;;;;;;;5.75;2.60;;;;;;;16.97;34.39;101997.50;4950171;29;20031;-72
2024/01/21 03:13:02;;;;;;;6.28;2.92;;;;;;;16.86;34.46;101965.63;4950252;29;20379;-74
2024/01/21 03:15:27;;;;;;;6.82;3.10;;;;;;;16.85;34.55;101956.03;4949934;28;20074;-72
2024/01/21 03:17:52;;;;;;;7.35;3.20;;;;;;;16.94;34.30;101973.09;4950022;29;20040;-73
2024/01/21 03:20:18;;;;;;;7.90;2.80;;;;;;;16.83;34.43;101960.50;4949371;29;20027;-73
2024/01/21 03:22:43;;;;;;;5.85;2.90;;;;;;;16.92;34.43;101980.25;4949662;29;20134;-73
2024/01/21 03:25:08;;;;;;;8.18;2.75;;;;;;;16.81;34.36;101960.63;4948882;29;20039;-73
2024/01/21 03:27:34;;;;;;;6.60;2.75;;;;;;;16.79;34.28;101970.38;4949432;29;20550;-74
2024/01/21 03:29:59;;;;;;;6.80;2.58;;;;;;;16.89;34.59;101985.69;4949052;29;20037;-73
2024/01/21 03:32:24;;;;;;;6.82;2.78;;;;;;;16.90;34.61;101982.97;4948939;29;20039;-73
2024/01/21 03:34:51;;;;;;;6.70;2.80;;;;;;;16.79;34.58;101957.22;4949247;29;20047;-72
2024/01/21 03:37:18;;;;;;;7.30;2.95;;;;;;;16.85;34.48;101974.47;4949650;29;20032;-73
2024/01/21 03:39:43;;;;;;;11.27;3.20;;;;;;;16.77;34.42;101955.63;4948943;29;20039;-72
2024/01/21 03:42:08;;;;;;;8.00;3.45;;;;;;;16.85;34.54;101975.34;4949340;28;21303;-73
2024/01/21 03:44:34;;;;;;;6.38;3.05;;;;;;;16.77;34.72;101950.38;4949516;29;20031;-74
2024/01/21 03:47:00;;;;;;;6.50;2.60;;;;;;;16.78;34.32;101945.00;4948961;29;20074;-73
2024/01/21 03:49:25;;;;;;;7.20;2.67;;;;;;;16.84;34.38;101956.97;4949387;29;20038;-73
2024/01/21 03:51:51;;;;;;;5.93;2.33;;;;;;;16.87;34.72;101967.34;4949338;28;20462;-72
2024/01/21 03:54:16;;;;;;;6.80;2.63;;;;;;;16.74;34.52;101943.47;4949398;29;20369;-72
2024/01/21 03:56:41;;;;;;;7.25;2.63;;;;;;;16.81;34.82;101947.47;4949273;29;20034;-72
2024/01/21 03:59:07;;;;;;;5.90;2.38;;;;;;;16.74;34.55;101919.78;4949458;29;20054;-72
2024/01/21 04:01:32;;;;;;;8.27;3.08;;;;;;;16.74;34.66;101904.00;4949166;29;20031;-73
2024/01/21 04:03:58;;;;;;;5.63;2.55;;;;;;;16.90;34.57;101929.47;4946631;29;20089;-73
2024/01/21 04:06:23;;;;;;;7.57;2.70;;;;;;;16.76;34.68;101901.28;4947143;28;20395;-73
2024/01/21 04:08:49;;;;;;;6.18;2.63;;;;;;;16.85;34.55;101901.59;4949228;29;20110;-72
2024/01/21 04:11:14;;;;;;;6.80;2.90;;;;;;;16.84;34.52;101897.25;4949396;28;20407;-72
2024/01/21 04:13:40;;;;;;;5.15;2.38;;;;;;;16.88;34.52;101902.34;4948678;29;20042;-74
2024/01/21 04:16:05;;;;;;;5.53;2.55;;;;;;;16.86;34.84;101905.94;4948923;29;20097;-71
2024/01/21 04:18:32;;;;;;;7.20;2.70;;;;;;;16.88;34.66;101915.53;4947635;29;20388;-72
2024/01/21 04:21:00;;;;;;;8.13;2.85;;;;;;;16.87;34.85;101919.94;4949031;29;20031;-72
2024/01/21 04:23:25;;;;;;;5.60;2.30;;;;;;;16.91;34.45;101934.63;4948532;29;20032;-73
2024/01/21 04:25:51;;;;;;;6.95;2.30;;;;;;;16.78;34.64;101910.78;4948753;28;20043;-73
2024/01/21 04:28:17;;;;;;;6.45;2.60;;;;;;;16.88;34.40;101912.88;4949053;29;20038;-73
2024/01/21 04:30:42;;;;;;;7.15;2.28;;;;;;;16.77;34.39;101895.09;4948654;29;20031;-72
2024/01/21 04:33:07;;;;;;;5.95;2.33;;;;;;;16.79;34.61;101888.78;4948641;29;20347;-74
2024/01/21 04:35:32;;;;;;;6.20;2.42;;;;;;;16.89;34.53;101898.78;4948910;29;20485;-72
2024/01/21 04:37:58;;;;;;;6.30;2.60;;;;;;;16.90;34.63;101897.88;4947867;29;20122;-72
2024/01/21 04:40:23;;;;;;;6.00;2.42;;;;;;;16.83;34.97;101871.88;4948659;29;20035;-72
2024/01/21 04:42:48;;;;;;;6.90;2.72;;;;;;;16.83;34.62;101848.16;4948475;29;20039;-72
2024/01/21 04:45:16;;;;;;;5.55;2.20;;;;;;;16.83;34.75;101831.50;4948054;29;20041;-73
2024/01/21 04:47:41;;;;;;;6.38;2.25;;;;;;;16.79;34.55;101824.75;4948491;29;20030;-73
2024/01/21 04:50:07;;;;;;;8.35;2.45;;;;;;;16.79;34.62;101822.94;4948299;29;20444;-72
2024/01/21 04:52:32;;;;;;;8.00;2.50;;;;;;;16.92;34.79;101833.63;4948378;28;20042;-73
2024/01/21 04:54:58;;;;;;;6.82;2.47;;;;;;;16.90;34.42;101813.63;4948463;29;20464;-74
2024/01/21 04:57:23;;;;;;;8.02;2.40;;;;;;;16.91;34.63;101810.88;4948152;29;20424;-73
2024/01/21 04:59:48;;;;;;;9.25;2.45;;;;;;;16.80;34.97;101798.34;4948429;29;20035;-73
2024/01/21 05:02:13;;;;;;;5.22;2.28;;;;;;;16.93;34.57;101803.72;4946120;29;20063;-72
2024/01/21 05:04:39;;;;;;;4.97;2.30;;;;;;;16.95;34.98;101803.63;4947978;29;20031;-73
2024/01/21 05:07:04;;;;;;;6.25;2.85;;;;;;;16.80;34.92;101787.81;4947607;29;20039;-73
2024/01/21 05:09:29;;;;;;;5.53;2.38;;;;;;;16.90;34.84;101809.19;4947267;29;20482;-72
2024/01/21 05:11:55;;;;;;;8.07;2.92;;;;;;;16.95;34.70;101816.81;4947530;29;20035;-73
2024/01/21 05:14:20;;;;;;;6.75;2.50;;;;;;;16.81;34.44;101800.03;4947897;29;20027;-73
2024/01/21 05:16:45;;;;;;;6.68;2.50;;;;;;;16.93;34.65;101826.59;4948037;28;20035;-72
2024/01/21 05:19:12;;;;;;;7.15;2.70;;;;;;;16.73;34.57;101791.72;4951870;29;20463;-72
2024/01/21 05:21:37;;;;;;;7.38;3.15;;;;;;;16.92;34.80;101827.53;4952229;28;20035;-73
2024/01/21 05:24:03;;;;;;;6.38;2.45;;;;;;;16.90;34.25;101819.72;4952119;29;20399;-72
2024/01/21 05:26:28;;;;;;;8.98;3.22;;;;;;;16.81;34.88;101815.84;4950616;29;20499;-71
2024/01/21 05:28:55;;;;;;;6.13;3.22;;;;;;;16.83;34.89;101794.66;4952238;29;20471;-74
2024/01/21 05:31:20;;;;;;;6.30;2.85;;;;;;;16.94;35.10;101805.44;4951925;29;20489;-72
2024/01/21 05:33:46;;;;;;;5.43;2.60;;;;;;;16.90;35.83;101789.91;4951773;28;20114;-74
2024/01/21 05:36:12;;;;;;;5.65;2.40;;;;;;;16.97;36.56;101807.00;4952038;29;20035;-71
2024/01/21 05:38:37;;;;;;;5.05;2.10;;;;;;;17.02;36.91;101805.81;4951425;29;20451;-72
2024/01/21 05:41:03;;;;;;;5.95;2.25;;;;;;;17.02;37.26;101815.47;4951933;29;20027;-74
2024/01/21 05:43:28;;;;;;;6.55;2.30;;;;;;;17.11;37.22;101809.66;4950278;29;20047;-73
2024/01/21 05:45:54;;;;;;;7.32;2.28;;;;;;;17.13;37.63;101806.91;4951303;29;20023;-71
2024/01/21 05:48:19;;;;;;;4.63;2.30;;;;;;;17.25;37.29;101807.97;4951382;29;20039;-73
2024/01/21 05:50:44;;;;;;;5.03;2.20;;;;;;;17.26;36.95;101815.78;4950217;29;20082;-73
2024/01/21 05:53:09;;;;;;;6.97;2.60;;;;;;;17.27;37.08;101806.06;4950949;29;20079;-71
2024/01/21 05:55:35;;;;;;;5.15;2.28;;;;;;;17.22;37.10;101794.03;4951749;29;20035;-73
2024/01/21 05:58:01;;;;;;;6.50;2.50;;;;;;;17.22;37.28;101787.91;4951531;28;20141;-73
2024/01/21 06:00:27;;;;;;;6.70;1.98;;;;;;;17.37;37.52;101805.41;4951320;29;20119;-73
2024/01/21 06:02:52;;;;;;;5.07;2.08;;;;;;;17.25;37.39;101793.00;4948997;29;20046;-73
2024/01/21 06:05:17;;;;;;;5.45;2.00;;;;;;;17.44;37.25;101815.56;4951332;28;20031;-73
2024/01/21 06:07:44;;;;;;;6.57;2.60;;;;;;;17.21;37.41;101767.78;4950984;29;20045;-71
2024/01/21 06:10:10;;;;;;;5.05;2.22;;;;;;;17.30;37.24;101767.19;4950976;28;20059;-74
2024/01/21 06:12:36;;;;;;;6.00;2.10;;;;;;;17.46;37.26;101788.16;4951074;28;20499;-73
2024/01/21 06:15:01;;;;;;;3.33;1.60;;;;;;;17.41;37.31;101791.06;4950647;29;20043;-72
2024/01/21 06:17:26;;;;;;;6.15;2.20;;;;;;;17.47;37.09;101802.19;4950474;29;20035;-73
2024/01/21 06:19:52;;;;;;;5.93;2.17;;;;;;;17.45;37.02;101812.84;4950918;29;20062;-71
2024/01/21 06:22:17;;;;;;;6.03;2.20;;;;;;;17.48;37.46;101811.78;4950660;29;20039;-72
2024/01/21 06:24:42;;;;;;;6.15;2.30;;;;;;;17.47;37.46;101825.91;4950681;29;20039;-72
2024/01/21 06:27:07;;;;;;;6.60;2.47;;;;;;;17.46;37.25;101818.94;4951245;29;20035;-72
2024/01/21 06:29:33;;;;;;;6.75;2.53;;;;;;;17.34;37.42;101792.41;4950139;28;20087;-73
2024/01/21 06:31:58;;;;;;;5.15;2.25;;;;;;;17.48;37.33;101817.91;4950951;29;20035;-73
2024/01/21 06:34:23;;;;;;;4.33;1.87;;;;;;;17.47;37.04;101826.75;4950401;29;20492;-73
2024/01/21 06:36:49;;;;;;;5.93;2.00;;;;;;;17.40;37.14;101806.97;4950928;29;20280;-72
2024/01/21 06:39:14;;;;;;;5.93;2.03;;;;;;;17.48;37.29;101830.22;4950674;29;20031;-71
2024/01/21 06:41:39;;;;;;;5.38;1.75;;;;;;;17.40;37.15;101806.97;4950834;29;20046;-72
2024/01/21 06:44:04;;;;;;;6.50;2.28;;;;;;;17.48;37.20;101817.91;4950331;29;20153;-71
2024/01/21 06:46:30;;;;;;;7.15;2.20;;;;;;;17.51;37.40;101832.66;4950688;29;20071;-74
2024/01/21 06:48:55;;;;;;;5.50;2.10;;;;;;;17.54;37.11;101824.56;4950175;29;20878;-73
2024/01/21 06:52:04;;;;;;;5.72;2.22;;;;;;;17.44;37.37;101803.22;4950403;29;20093;-73
2024/01/21 06:54:09;;;;;;;4.85;2.13;;;;;;;17.58;37.43;101820.81;4947164;29;20448;-71
2024/01/21 06:56:34;;;;;;;6.13;2.00;;;;;;;17.58;37.39;101829.56;4950511;29;20468;-73
2024/01/21 06:59:00;;;;;;;6.15;2.00;;;;;;;17.57;37.37;101821.75;4950325;29;20499;-73
2024/01/21 07:01:25;;;;;;;5.57;2.20;;;;;;;17.49;37.21;101814.31;4949695;29;20118;-71
2024/01/21 07:03:50;;;;;;;5.28;2.10;;;;;;;17.54;37.10;101812.22;4948246;29;20035;-72
2024/01/21 07:06:16;;;;;;;5.13;1.90;;;;;;;17.62;37.25;101810.91;4950551;29;20039;-70
2024/01/21 07:08:41;;;;;;;5.20;2.05;;;;;;;17.61;37.30;101796.03;4950171;29;20027;-72
2024/01/21 07:11:07;;;;;;;5.47;2.00;;;;;;;17.63;36.96;101786.25;4949538;29;20113;-71
2024/01/21 07:13:33;;;;;;;5.63;1.85;;;;;;;17.56;37.38;101765.56;4949412;28;20031;-71
2024/01/21 07:15:58;;;;;;;4.45;1.98;;;;;;;17.63;37.44;101768.63;4950202;28;20039;-73
2024/01/21 07:18:23;;;;;;;4.40;1.95;;;;;;;17.57;36.96;101777.78;4950167;29;20027;-72
2024/01/21 07:20:49;;;;;;;6.20;2.33;;;;;;;17.63;37.19;101776.53;4949788;29;20174;-73
2024/01/21 07:23:14;;;;;;;5.88;1.77;;;;;;;17.66;36.97;101799.25;4949209;29;20039;-70
2024/01/21 07:25:40;;;;;;;4.40;1.85;;;;;;;17.52;37.13;101764.03;4947017;29;20106;-70
2024/01/21 07:28:05;;;;;;;4.25;1.55;;;;;;;17.63;37.15;101779.19;4949806;29;20055;-72
2024/01/21 07:30:31;;;;;;;6.80;2.05;;;;;;;17.51;36.95;101759.72;4947317;28;20027;-71
2024/01/21 07:32:57;;;;;;;4.53;2.05;;;;;;;17.62;37.06;101766.94;4949655;29;20055;-71
2024/01/21 07:35:22;;;;;;;6.93;2.10;;;;;;;17.60;37.16;101763.56;4949707;29;20047;-72
2024/01/21 07:37:47;;;;;;;5.10;1.85;;;;;;;17.63;37.07;101770.44;4948306;29;20050;-72
2024/01/21 07:40:13;;;;;;;7.18;1.88;;;;;;;17.51;37.13;101735.16;4949049;28;20187;-72
2024/01/21 07:42:38;;;;;;;6.88;2.17;;;;;;;17.53;37.05;101752.56;4949373;29;20129;-70
2024/01/21 07:45:04;;;;;;;6.65;1.98;;;;;;;17.67;36.80;101762.19;4949409;29;20379;-72
2024/01/21 07:47:29;;;;;;;5.43;2.17;;;;;;;17.57;37.08;101761.13;4948497;29;20042;-70
2024/01/21 07:49:55;;;;;;;5.13;1.98;;;;;;;17.70;37.10;101800.72;4949871;29;20079;-71
2024/01/21 07:52:20;;;;;;;7.28;2.28;;;;;;;17.62;36.96;101776.63;4949460;29;20126;-72
2024/01/21 07:54:46;;;;;;;6.68;1.60;;;;;;;17.70;37.11;101806.81;4948970;29;20125;-73
2024/01/21 07:57:12;;;;;;;5.28;1.88;;;;;;;17.65;37.06;101805.44;4949052;29;20166;-71
2024/01/21 07:59:37;;;;;;;7.32;2.20;;;;;;;17.69;37.26;101807.78;4948838;29;20042;-72
2024/01/21 08:02:03;;;;;;;5.32;1.77;;;;;;;17.67;37.31;101822.84;4946796;28;20036;-70
2024/01/21 08:04:28;;;;;;;5.47;2.08;;;;;;;17.70;37.37;101822.63;4948078;29;20034;-72
2024/01/21 08:06:53;;;;;;;4.72;1.80;;;;;;;17.67;37.65;101836.00;4949052;29;20031;-70
2024/01/21 08:09:19;;;;;;;6.00;1.90;;;;;;;17.67;37.44;101851.84;4948597;29;20033;-69
2024/01/21 08:11:44;;;;;;;3.78;1.70;;;;;;;17.71;37.33;101868.31;4947005;28;20045;-70
2024/01/21 08:14:11;;;;;;;4.93;1.92;;;;;;;17.68;37.56;101860.59;4948151;29;20038;-71
2024/01/21 08:16:37;;;;;;;6.38;2.17;;;;;;;17.70;37.40;101880.63;4948526;28;20396;-73
2024/01/21 08:19:03;;;;;;;4.80;1.85;;;;;;;17.57;37.57;101856.00;4948242;28;20039;-72
2024/01/21 08:21:29;;;;;;;3.55;1.80;;;;;;;17.71;37.46;101876.22;4945033;29;20377;-70
2024/01/21 08:23:54;;;;;;;6.00;1.95;;;;;;;17.65;37.76;101877.44;4946676;28;20041;-72
2024/01/21 08:26:20;;;;;;;6.30;2.17;;;;;;;17.70;37.81;101885.91;4948510;28;20114;-71
2024/01/21 08:28:45;;;;;;;5.18;1.90;;;;;;;17.73;37.59;101900.69;4947022;29;20511;-70
2024/01/21 08:31:10;;;;;;;6.80;2.00;;;;;;;17.71;37.94;101876.22;4948526;29;20062;-72
2024/01/21 08:33:36;;;;;;;4.10;1.80;;;;;;;17.68;38.22;101872.00;4948289;29;20033;-71
2024/01/21 08:36:02;;;;;;;6.03;2.13;;;;;;;17.75;37.98;101872.44;4948810;29;20048;-72
2024/01/21 08:38:28;;;;;;;5.53;1.80;;;;;;;17.75;38.44;101867.16;4948202;28;20027;-72
2024/01/21 08:40:53;;;;;;;5.32;2.17;;;;;;;17.72;38.26;101859.44;4948228;28;20491;-71
2024/01/21 08:43:18;;;;;;;6.97;1.90;;;;;;;17.70;38.32;101849.00;4947874;29;20481;-71
2024/01/21 08:45:43;;;;;;;6.38;2.13;;;;;;;17.74;38.60;101853.16;4948097;29;20031;-73
2024/01/21 08:48:09;;;;;;;5.97;1.73;;;;;;;17.76;38.42;101845.97;4948021;29;20538;-74
2024/01/21 08:50:34;;;;;;;5.25;1.80;;;;;;;17.63;38.21;101818.72;4947897;29;20113;-70
2024/01/21 08:52:59;;;;;;;6.35;2.22;;;;;;;17.64;38.56;101836.25;4948058;29;20031;-71
2024/01/21 08:55:25;;;;;;;8.70;1.98;;;;;;;17.71;38.37;101855.13;4948381;29;20104;-70
2024/01/21 08:57:50;;;;;;;6.88;1.92;;;;;;;17.66;38.43;101851.97;4948485;28;20424;-73
2024/01/21 09:00:16;;;;;;;4.50;2.08;;;;;;;17.71;38.57;101871.78;4948531;28;20383;-72
2024/01/21 09:02:41;;;;;;;5.72;1.92;;;;;;;17.80;38.70;101887.97;4946152;29;21092;-71
2024/01/21 09:05:07;;;;;;;7.45;2.20;;;;;;;17.69;38.25;101860.50;4948207;28;20075;-73
2024/01/21 09:07:32;;;;;;;5.22;1.98;;;;;;;17.80;38.56;101888.84;4948546;28;20039;-71
2024/01/21 09:09:58;;;;;;;5.97;1.88;;;;;;;17.74;38.45;101871.59;4947372;29;20039;-73
2024/01/21 09:12:24;;;;;;;9.25;2.13;;;;;;;17.70;38.35;101869.25;4948116;28;20031;-71
2024/01/21 09:14:49;;;;;;;7.78;1.75;;;;;;;17.76;38.88;101872.34;4947884;29;20039;-75
2024/01/21 09:17:14;;;;;;;5.47;1.60;;;;;;;17.68;38.52;101850.91;4948192;29;20038;-72
2024/01/21 09:19:39;;;;;;;4.68;1.60;;;;;;;17.67;38.46;101862.38;4949665;29;20423;-73
2024/01/21 09:22:05;;;;;;;6.32;1.95;;;;;;;17.80;38.18;101885.34;4949253;29;20043;-71
2024/01/21 09:24:31;;;;;;;7.25;1.98;;;;;;;17.77;38.37;101892.50;4947552;28;20035;-74
2024/01/21 09:26:56;;;;;;;6.45;1.80;;;;;;;17.79;38.47;101902.97;4948258;28;20066;-72
2024/01/21 09:29:21;;;;;;;5.50;1.65;;;;;;;17.72;38.94;101902.50;4947971;29;20031;-73
2024/01/21 09:31:55;;;;;;;5.82;2.17;;;;;;;17.68;38.48;101890.44;4948360;29;20139;-72
2024/01/21 09:34:20;;;;;;;6.15;1.90;;;;;;;17.75;38.16;101899.69;4947886;28;20055;-72
2024/01/21 09:36:45;;;;;;;5.13;1.85;;;;;;;17.68;38.29;101906.25;4948231;28;20076;-72
2024/01/21 09:39:11;;;;;;;4.80;2.05;;;;;;;17.68;38.39;101906.25;4948221;29;20148;-72
2024/01/21 09:41:43;;;;;;;5.88;1.70;;;;;;;17.80;38.64;101925.75;4947825;29;20122;-73
2024/01/21 09:44:08;;;;;;;8.43;2.47;;;;;;;17.70;38.38;101919.34;4947859;28;20027;-72
2024/01/21 09:46:34;;;;;;;5.00;1.90;;;;;;;17.82;38.70;101944.13;4948136;29;20038;-72
2024/01/21 09:49:01;;;;;;;4.38;1.50;;;;;;;17.74;38.63;101916.44;4947725;29;20118;-72
2024/01/21 09:51:29;;;;;;;5.55;1.83;;;;;;;17.69;38.88;101905.31;4946401;29;20035;-71
2024/01/21 09:53:54;;;;;;;6.45;2.00;;;;;;;17.82;38.94;101918.59;4947566;28;20035;-73
2024/01/21 09:56:21;;;;;;;5.72;2.22;;;;;;;17.84;39.12;101929.03;4948189;28;20043;-72
2024/01/21 09:58:51;;;;;;;4.47;1.60;;;;;;;17.83;38.83;101927.34;4948229;28;20122;-73
2024/01/21 10:01:17;;;;;;;4.13;1.67;;;;;;;17.67;38.88;101907.19;4948027;28;20039;-72
2024/01/21 10:03:45;;;;;;;4.90;1.90;;;;;;;17.67;38.88;101899.28;4946178;28;20042;-71
2024/01/21 10:06:11;;;;;;;7.28;1.98;;;;;;;17.71;39.11;101906.06;4951216;28;20053;-71
2024/01/21 10:08:37;;;;;;;6.68;2.78;;;;;;;17.81;39.14;101919.53;4950724;28;20045;-71
2024/01/21 10:11:03;;;;;;;6.68;1.70;;;;;;;17.70;39.06;101900.91;4950791;28;20054;-74
2024/01/21 10:13:31;;;;;;;6.00;1.58;;;;;;;17.83;38.86;101927.34;4950723;28;20755;-74
2024/01/21 10:15:57;;;;;;;5.50;1.80;;;;;;;17.81;38.89;101919.53;4950694;28;20027;-72
2024/01/21 10:18:22;;;;;;;5.88;2.15;;;;;;;17.71;38.95;101900.78;4951347;28;20504;-73
2024/01/21 10:20:48;;;;;;;4.22;1.80;;;;;;;17.71;39.40;101890.25;4950571;29;20039;-72
2024/01/21 10:23:13;;;;;;;5.25;1.65;;;;;;;17.77;39.35;101897.78;4946934;28;20058;-73
2024/01/21 10:25:43;;;;;;;4.75;1.58;;;;;;;17.74;39.64;101884.78;4949983;29;20082;-73
2024/01/21 10:28:11;;;;;;;5.78;1.80;;;;;;;17.87;39.32;101899.84;4950229;28;20039;-73
2024/01/21 10:30:36;;;;;;;6.47;2.17;;;;;;;17.87;39.74;101897.19;4950192;29;20078;-73
2024/01/21 10:33:01;;;;;;;4.13;1.65;;;;;;;17.77;39.69;101879.31;4950025;29;20420;-73
2024/01/21 10:35:26;;;;;;;7.63;1.80;;;;;;;17.91;39.99;101891.66;4949710;29;20090;-70
2024/01/21 10:37:52;;;;;;;5.85;1.65;;;;;;;17.90;40.09;101889.97;4950492;29;20662;-70
2024/01/21 10:40:17;;;;;;;8.25;1.95;;;;;;;17.90;39.84;101875.94;4949417;29;20049;-71
2024/01/21 10:42:44;;;;;;;4.97;1.52;;;;;;;17.94;39.95;101882.69;4950586;28;20476;-70
2024/01/21 10:45:10;;;;;;;5.53;1.80;;;;;;;17.82;39.74;101855.31;4950578;28;20077;-69
2024/01/21 10:47:40;;;;;;;7.03;1.77;;;;;;;17.92;39.91;101863.50;4950668;28;20027;-70
2024/01/21 10:50:07;;;;;;;5.68;2.13;;;;;;;17.94;40.19;101864.22;4949903;28;20031;-69
2024/01/21 10:52:32;;;;;;;6.60;1.80;;;;;;;17.95;39.99;101861.50;4950510;28;20498;-69
2024/01/21 10:54:59;;;;;;;4.88;1.80;;;;;;;17.83;40.48;101842.94;4950591;28;20031;-69
2024/01/21 10:57:24;;;;;;;5.10;1.90;;;;;;;17.85;40.34;101841.06;4950277;29;20393;-70
2024/01/21 10:59:49;;;;;;;7.03;1.80;;;;;;;17.96;40.09;101859.72;4950282;29;20468;-70
2024/01/21 11:02:15;;;;;;;3.40;1.50;;;;;;;17.85;40.44;101852.47;4948608;28;20122;-70
2024/01/21 11:04:41;;;;;;;4.60;1.70;;;;;;;17.89;40.35;101845.22;4949606;29;20046;-69
2024/01/21 11:07:11;;;;;;;5.60;2.05;;;;;;;18.02;40.59;101845.28;4950180;29;20050;-69
2024/01/21 11:09:37;;;;;;;8.20;2.33;;;;;;;17.89;40.48;101826.78;4950098;28;20031;-70
2024/01/21 11:12:03;;;;;;;4.57;1.58;;;;;;;17.89;40.19;101824.13;4950226;28;20035;-71
2024/01/21 11:14:28;;;;;;;5.72;1.50;;;;;;;18.02;40.30;101838.19;4949856;28;20039;-70
2024/01/21 11:17:01;;;;;;;5.27;1.77;;;;;;;18.03;40.72;101849.63;4950033;29;20518;-70